KPSM

Portsmouth International at Pease Airport

Portsmouth, New Hampshire, USA
METAR KPSM 181456Z 29008KT 10SM CLR M05/M10 A2994 RMK AO2A SLP142 T10551101 50003
Observed Flight Rules
Jan-18 @ 14:56 UTC (35 minutes ago) Visual Flight Rules
Wind Visibility Clouds
290° at 8 knots 10 miles
  • Clear skies
Temperatures Readings
Current -6°C / 21°F
Dewpoint -10°C / 14°F
Humidity 74%
Altimeter 29.94" Hg
Pressure 1014.2 hPa
Elevation 31
METAR KPSM 181456Z 29008KT 10SM CLR M05/M10 A2994 RMK AO2A SLP142 T10551101 50003
Observed Flight Rules
Jan-18 @ 14:56 UTC
(35 minutes ago)
VFR
Wind Visibility
290° at 8 knots 10 miles
Clouds
  • Clear skies
Temperature Dewpoint
-6°C / 21°F -10°C / 14°F
Humidity Altimeter Pressure
74% 29.94" Hg 1014.2 hPa